Time;durP1;ratioP1;P1;durP2;ratioP2;P2;SDS_P1;SDS_P2;PMS_P1;PMS_P2;Temp;Humidity;BMP_temperature;BMP_pressure;BME280_temperature;BME280_humidity;BME280_pressure;Samples;Min_cycle;Max_cycle;Signal;HPM_P1;HPM_P2
2022/11/25 00:02:03;;;;;;;8.02;5.50;;;;;;;1.68;100.00;96270.03;5072097;28;20041;-90
2022/11/25 00:04:35;;;;;;;9.35;6.10;;;;;;;1.67;100.00;96271.13;5072855;28;20064;-90
2022/11/25 00:07:02;;;;;;;7.40;3.97;;;;;;;1.63;100.00;96261.97;5073030;28;20426;-89
2022/11/25 00:09:28;;;;;;;10.02;5.80;;;;;;;1.68;100.00;96270.03;5072336;28;20047;-87
2022/11/25 00:11:55;;;;;;;11.43;6.25;;;;;;;1.63;100.00;96270.03;5072495;28;20048;-90
2022/11/25 00:14:21;;;;;;;12.13;6.63;;;;;;;1.65;100.00;96269.75;5058842;28;20045;-90
2022/11/25 00:16:48;;;;;;;11.48;6.30;;;;;;;1.63;100.00;96267.34;5053293;28;20041;-91
2022/11/25 00:19:14;;;;;;;10.30;6.47;;;;;;;1.63;100.00;96264.66;5052012;28;20037;-89
2022/11/25 00:21:42;;;;;;;9.55;6.10;;;;;;;1.63;100.00;96261.97;5062532;28;20048;-89
2022/11/25 00:24:12;;;;;;;11.10;6.95;;;;;;;1.62;100.00;96265.72;5071892;28;20414;-90
2022/11/25 00:26:39;;;;;;;9.75;6.18;;;;;;;1.62;100.00;96268.41;5072129;28;20047;-90
2022/11/25 00:29:07;;;;;;;12.05;7.03;;;;;;;1.61;100.00;96269.47;5071751;28;20052;-88
2022/11/25 00:31:35;;;;;;;9.35;6.40;;;;;;;1.58;100.00;96270.00;5071905;28;20530;-88
2022/11/25 00:34:02;;;;;;;14.00;7.22;;;;;;;1.60;100.00;96281.28;5071766;28;20048;-90
2022/11/25 00:36:31;;;;;;;12.48;7.10;;;;;;;1.58;100.00;96280.72;5071540;28;20053;-89
2022/11/25 00:39:00;;;;;;;11.77;7.20;;;;;;;1.59;100.00;96285.03;5057554;28;20052;-89
2022/11/25 00:46:57;;;;;;;11.68;7.30;;;;;;;1.57;100.00;96289.88;5052071;28;20510;-88
2022/11/25 00:49:24;;;;;;;12.20;6.70;;;;;;;1.56;100.00;96289.03;5063362;28;20041;-90
2022/11/25 00:51:51;;;;;;;13.48;7.60;;;;;;;1.55;100.00;96290.09;5071623;28;20052;-89
2022/11/25 00:54:19;;;;;;;11.38;7.47;;;;;;;1.54;100.00;96287.69;5071359;28;20047;-89
2022/11/25 00:56:46;;;;;;;10.82;7.45;;;;;;;1.55;100.00;96289.31;5071683;28;20576;-90
2022/11/25 00:59:12;;;;;;;11.50;7.85;;;;;;;1.51;100.00;96285.53;5071410;28;20036;-89
2022/11/25 01:01:39;;;;;;;12.90;8.15;;;;;;;1.52;100.00;96289.84;5063116;28;20047;-89
2022/11/25 01:04:06;;;;;;;13.73;8.00;;;;;;;1.50;100.00;96273.19;5051327;28;20045;-89
2022/11/25 01:06:33;;;;;;;13.05;7.55;;;;;;;1.49;100.00;96282.31;5051204;28;20049;-90
2022/11/25 01:09:00;;;;;;;13.52;7.88;;;;;;;1.50;100.00;96275.84;5051478;28;20052;-89
2022/11/25 01:11:28;;;;;;;13.13;7.95;;;;;;;1.48;100.00;96273.44;5056961;28;20044;-89
2022/11/25 01:13:57;;;;;;;11.63;7.75;;;;;;;1.48;100.00;96276.13;5069764;28;20060;-90
2022/11/25 01:16:24;;;;;;;14.52;7.63;;;;;;;1.48;100.00;96272.63;5036136;28;20041;-90
2022/11/25 01:18:51;;;;;;;14.98;8.52;;;;;;;1.42;100.00;96271.81;5051303;28;20049;-89
2022/11/25 01:21:19;;;;;;;13.90;7.90;;;;;;;1.41;100.00;96274.75;5054973;28;20047;-91
2022/11/25 01:23:47;;;;;;;13.25;8.20;;;;;;;1.40;100.00;96273.94;5070808;28;20491;-89
2022/11/25 01:26:16;;;;;;;12.95;7.78;;;;;;;1.39;100.00;96276.88;5070841;28;20040;-90
2022/11/25 01:28:45;;;;;;;13.55;8.55;;;;;;;1.36;100.00;96267.50;5052562;28;20041;-90
2022/11/25 01:31:14;;;;;;;14.27;8.38;;;;;;;1.34;100.00;96271.50;5053967;28;20499;-89
2022/11/25 01:33:41;;;;;;;16.50;8.65;;;;;;;1.34;100.00;96268.81;5071178;28;20048;-89
2022/11/25 01:36:10;;;;;;;12.77;8.00;;;;;;;1.34;100.00;96260.75;5072052;28;20066;-90
2022/11/25 01:38:37;;;;;;;15.40;8.57;;;;;;;1.34;100.00;96263.44;5072776;28;20067;-90
2022/11/25 01:41:05;;;;;;;18.30;8.73;;;;;;;1.33;100.00;96261.84;5072661;28;20044;-88
2022/11/25 01:43:32;;;;;;;13.35;8.00;;;;;;;1.33;100.00;96272.56;5071548;28;20407;-89
2022/11/25 01:46:07;;;;;;;14.82;8.93;;;;;;;1.32;100.00;96270.97;5069841;28;20439;-90
2022/11/25 01:48:39;;;;;;;16.75;8.85;;;;;;;1.29;100.00;96267.72;5071034;28;20062;-90
2022/11/25 01:51:15;;;;;;;13.18;8.48;;;;;;;1.27;100.00;96269.88;5061059;28;20048;-90
2022/11/25 01:53:42;;;;;;;13.25;8.13;;;;;;;1.22;100.00;96269.84;5049992;28;20049;-89
2022/11/25 01:56:08;;;;;;;12.57;8.00;;;;;;;1.17;100.00;96272.50;5050483;28;20036;-89
2022/11/25 01:58:37;;;;;;;12.32;7.90;;;;;;;1.11;100.00;96270.03;5050770;28;20048;-89
2022/11/25 02:01:05;;;;;;;12.75;7.75;;;;;;;1.05;100.00;96263.84;5056880;28;20044;-88
2022/11/25 02:03:37;;;;;;;12.38;7.50;;;;;;;1.01;100.00;96265.44;5070466;28;20503;-89
2022/11/25 02:06:10;;;;;;;13.85;7.43;;;;;;;0.99;100.00;96267.53;5068705;28;20048;-88
2022/11/25 02:08:37;;;;;;;13.25;7.93;;;;;;;0.95;100.00;96269.16;5070726;28;20044;-89
2022/11/25 02:11:04;;;;;;;13.68;8.68;;;;;;;0.90;100.00;96263.75;5069916;28;20045;-90
2022/11/25 02:13:32;;;;;;;13.57;8.18;;;;;;;0.87;100.00;96266.94;5070439;28;20041;-90
2022/11/25 02:15:59;;;;;;;15.23;8.10;;;;;;;0.85;100.00;96266.41;5069205;28;20048;-90
2022/11/25 02:18:27;;;;;;;11.85;7.47;;;;;;;0.81;100.00;96265.28;5069357;28;20048;-90
2022/11/25 02:20:54;;;;;;;14.13;8.43;;;;;;;0.81;100.00;96262.63;5069886;28;20051;-89
2022/11/25 02:23:32;;;;;;;12.23;7.68;;;;;;;0.81;100.00;96268.78;5052278;28;20067;-87
2022/11/25 02:26:00;;;;;;;12.25;7.80;;;;;;;0.80;100.00;96269.03;5070119;28;20064;-90
2022/11/25 02:28:29;;;;;;;12.32;7.93;;;;;;;0.76;100.00;96261.50;5069865;28;20040;-89
2022/11/25 02:30:56;;;;;;;12.13;7.63;;;;;;;0.77;100.00;96260.44;5066461;28;20067;-87
2022/11/25 02:33:24;;;;;;;14.10;8.15;;;;;;;0.76;100.00;96253.47;5050200;28;20052;-89
2022/11/25 02:35:54;;;;;;;12.27;8.38;;;;;;;0.77;100.00;96255.06;5050648;28;20507;-90
2022/11/25 02:38:24;;;;;;;14.20;8.32;;;;;;;0.78;100.00;96267.44;5067236;28;20052;-90
2022/11/25 02:40:55;;;;;;;14.85;7.88;;;;;;;0.78;100.00;96256.72;5069217;28;20047;-90
2022/11/25 02:43:24;;;;;;;13.07;8.02;;;;;;;0.78;100.00;96251.34;5067579;28;20048;-90
2022/11/25 02:45:59;;;;;;;16.33;9.05;;;;;;;0.78;100.00;96245.16;5068841;28;20045;-90
2022/11/25 02:48:27;;;;;;;18.92;8.63;;;;;;;0.79;100.00;96246.81;5069392;28;20041;-90
2022/11/25 02:50:53;;;;;;;14.55;8.75;;;;;;;0.81;100.00;96249.22;5068410;28;20525;-88
2022/11/25 02:53:21;;;;;;;13.10;8.27;;;;;;;0.80;100.00;96252.97;5069657;28;20045;-89
2022/11/25 02:55:48;;;;;;;13.90;8.38;;;;;;;0.80;100.00;96264.50;5070307;28;20060;-89
2022/11/25 02:58:15;;;;;;;15.70;9.35;;;;;;;0.80;100.00;96259.13;5069657;28;20048;-89
2022/11/25 03:00:43;;;;;;;12.52;7.68;;;;;;;0.81;100.00;96258.06;5069363;28;20040;-89
2022/11/25 03:03:10;;;;;;;13.10;7.90;;;;;;;0.82;100.00;96259.66;5049854;28;20411;-89
2022/11/25 03:05:37;;;;;;;13.70;8.38;;;;;;;0.84;100.00;96265.59;5050034;28;20045;-90
2022/11/25 03:08:05;;;;;;;14.90;8.50;;;;;;;0.84;100.00;96262.13;5049565;28;20099;-91
2022/11/25 03:10:31;;;;;;;13.15;8.23;;;;;;;0.82;100.00;96262.34;5049905;28;20045;-88
2022/11/25 03:12:58;;;;;;;15.73;8.57;;;;;;;0.83;100.00;96258.59;5050357;28;20044;-89
2022/11/25 03:15:25;;;;;;;13.77;8.65;;;;;;;0.83;100.00;96261.28;5062168;28;20036;-90
2022/11/25 03:17:53;;;;;;;14.38;8.35;;;;;;;0.84;100.00;96256.75;5069986;28;20503;-88
2022/11/25 03:20:21;;;;;;;12.73;7.35;;;;;;;0.84;100.00;96254.06;5068800;28;20044;-89
2022/11/25 03:22:48;;;;;;;13.88;8.20;;;;;;;0.84;100.00;96260.22;5054390;28;20067;-90
2022/11/25 03:25:15;;;;;;;12.82;8.52;;;;;;;0.84;100.00;96251.38;5067251;28;20427;-87
2022/11/25 03:27:42;;;;;;;13.90;8.68;;;;;;;0.84;100.00;96254.06;5069635;28;20548;-89
2022/11/25 03:30:11;;;;;;;14.02;9.10;;;;;;;0.84;100.00;96254.06;5070953;28;20048;-89
2022/11/25 03:32:38;;;;;;;13.40;8.60;;;;;;;0.82;100.00;96256.19;5053845;28;20041;-90
2022/11/25 03:35:07;;;;;;;12.40;7.88;;;;;;;0.78;100.00;96246.00;5052952;28;20056;-90
2022/11/25 03:37:34;;;;;;;13.02;8.43;;;;;;;0.80;100.00;96242.25;5071575;28;20674;-90
2022/11/25 03:40:00;;;;;;;13.07;7.85;;;;;;;0.79;100.00;96246.81;5073489;28;20041;-90
2022/11/25 03:42:27;;;;;;;14.38;8.43;;;;;;;0.77;100.00;96254.28;5072528;28;20052;-90
2022/11/25 03:44:53;;;;;;;13.77;8.35;;;;;;;0.77;100.00;96249.72;5071495;28;20037;-89
2022/11/25 03:47:20;;;;;;;13.18;8.10;;;;;;;0.76;100.00;96250.78;5072104;28;20075;-91
2022/11/25 03:49:47;;;;;;;14.48;8.20;;;;;;;0.74;100.00;96252.94;5073004;28;20045;-89
2022/11/25 03:52:14;;;;;;;11.50;7.47;;;;;;;0.71;100.00;96250.75;5072807;28;20047;-90
2022/11/25 03:54:41;;;;;;;14.38;8.27;;;;;;;0.72;100.00;96251.56;5073019;28;20051;-90
2022/11/25 03:57:08;;;;;;;14.18;9.20;;;;;;;0.75;100.00;96256.41;5069996;28;20048;-88
2022/11/25 03:59:34;;;;;;;13.52;8.40;;;;;;;0.75;100.00;96262.59;5053174;28;20406;-88
2022/11/25 04:02:01;;;;;;;12.73;8.30;;;;;;;0.74;100.00;96260.97;5053008;28;20056;-89
2022/11/25 04:04:27;;;;;;;13.68;8.35;;;;;;;0.73;100.00;96266.56;5052534;28;20037;-90
2022/11/25 04:06:54;;;;;;;15.68;9.18;;;;;;;0.72;100.00;96267.63;5052891;28;20049;-87
2022/11/25 04:09:22;;;;;;;14.98;8.38;;;;;;;0.68;100.00;96271.88;5052183;28;20486;-88
2022/11/25 04:14:33;;;;;;;18.25;9.23;;;;;;;0.63;99.95;96279.91;5057768;28;20055;-89
2022/11/25 04:16:59;;;;;;;14.43;8.10;;;;;;;0.63;100.00;96286.09;5072698;28;20041;-90
2022/11/25 04:19:26;;;;;;;12.85;7.85;;;;;;;0.62;100.00;96287.13;5071811;28;20040;-89
2022/11/25 04:21:53;;;;;;;15.32;8.93;;;;;;;0.65;100.00;96283.13;5071994;28;20407;-91
2022/11/25 04:24:21;;;;;;;13.50;8.48;;;;;;;0.64;100.00;96287.69;5071728;28;20565;-89
2022/11/25 04:26:48;;;;;;;16.13;9.02;;;;;;;0.64;100.00;96286.88;5064172;28;20041;-89
2022/11/25 04:29:14;;;;;;;15.27;8.18;;;;;;;0.65;100.00;96286.63;5052045;28;20056;-88
2022/11/25 04:31:41;;;;;;;13.23;8.13;;;;;;;0.66;100.00;96285.56;5052656;28;20045;-90
2022/11/25 04:34:07;;;;;;;15.40;9.20;;;;;;;0.66;100.00;96288.22;5051611;28;20048;-91
2022/11/25 04:36:34;;;;;;;14.43;7.82;;;;;;;0.66;100.00;96290.91;5052318;28;20052;-90
2022/11/25 04:39:00;;;;;;;14.38;8.38;;;;;;;0.67;100.00;96287.16;5052338;28;20507;-89
2022/11/25 04:41:28;;;;;;;15.05;8.57;;;;;;;0.70;100.00;96286.66;5050896;28;20048;-88
2022/11/25 04:43:55;;;;;;;15.20;8.65;;;;;;;0.73;100.00;96296.88;5052967;28;20049;-89
2022/11/25 04:46:24;;;;;;;16.38;9.27;;;;;;;0.72;100.00;96300.59;5071063;28;20507;-90
2022/11/25 04:48:51;;;;;;;14.25;9.20;;;;;;;0.71;100.00;96301.69;5071835;28;20049;-89
2022/11/25 04:51:18;;;;;;;14.07;8.52;;;;;;;0.73;100.00;96301.41;5054153;28;20496;-90
2022/11/25 04:53:44;;;;;;;22.42;13.07;;;;;;;0.75;100.00;96297.41;5052250;28;20075;-88
2022/11/25 04:56:16;;;;;;;17.92;10.82;;;;;;;0.80;100.00;96290.50;5067217;28;20051;-91
2022/11/25 05:01:29;;;;;;;15.00;8.60;;;;;;;0.83;100.00;96295.31;5067943;28;20376;-90
2022/11/25 05:03:55;;;;;;;15.63;9.27;;;;;;;0.87;100.00;96301.78;5058382;28;20056;-89
2022/11/25 05:06:22;;;;;;;15.88;9.32;;;;;;;0.89;100.00;96294.28;5070991;28;20063;-89
2022/11/25 05:08:49;;;;;;;16.38;8.90;;;;;;;0.90;100.00;96293.25;5071517;28;20061;-89
2022/11/25 05:11:16;;;;;;;15.60;8.77;;;;;;;0.89;100.00;96286.25;5071328;28;20048;-90
2022/11/25 05:13:42;;;;;;;15.25;8.40;;;;;;;0.90;100.00;96285.19;5064974;28;20420;-90
2022/11/25 05:16:10;;;;;;;14.90;8.68;;;;;;;0.92;100.00;96288.41;5070108;28;20040;-89
2022/11/25 05:18:37;;;;;;;17.00;9.40;;;;;;;0.92;100.00;96288.41;5071426;28;20036;-89
2022/11/25 05:21:04;;;;;;;16.65;9.73;;;;;;;0.92;100.00;96294.59;5071113;28;20407;-90
2022/11/25 05:23:31;;;;;;;16.10;8.93;;;;;;;0.92;100.00;96288.41;5071539;28;20045;-91
2022/11/25 05:25:59;;;;;;;14.05;8.30;;;;;;;0.92;100.00;96283.06;5070311;28;20044;-90
2022/11/25 05:28:26;;;;;;;13.95;8.57;;;;;;;0.92;100.00;96288.41;5070577;28;20040;-90
2022/11/25 05:30:52;;;;;;;15.38;9.18;;;;;;;0.93;100.00;96300.75;5071064;28;20041;-90
2022/11/25 05:33:21;;;;;;;16.08;9.50;;;;;;;0.93;100.00;96284.66;5070462;28;20053;-89
2022/11/25 05:35:54;;;;;;;15.93;9.93;;;;;;;0.93;100.00;96300.75;5070616;28;20498;-89
2022/11/25 05:38:20;;;;;;;16.25;9.68;;;;;;;0.91;100.00;96294.84;5070586;28;20040;-89
2022/11/25 05:40:47;;;;;;;15.18;9.10;;;;;;;0.89;100.00;96303.16;5071733;28;20048;-90
2022/11/25 05:43:13;;;;;;;17.23;9.18;;;;;;;0.87;100.00;96299.09;5061393;28;20048;-89
2022/11/25 05:45:40;;;;;;;17.13;9.10;;;;;;;0.87;100.00;96301.78;5066030;28;20044;-90
2022/11/25 05:48:06;;;;;;;16.55;8.95;;;;;;;0.86;100.00;96290.25;5060623;28;20427;-90
2022/11/25 05:50:35;;;;;;;18.13;9.73;;;;;;;0.83;100.00;96295.31;5050974;28;20041;-90
2022/11/25 05:53:01;;;;;;;16.55;9.32;;;;;;;0.82;100.00;96294.50;5051006;28;20041;-89
2022/11/25 05:55:28;;;;;;;15.15;8.77;;;;;;;0.82;100.00;96299.06;5050767;28;20041;-89
2022/11/25 05:57:54;;;;;;;15.32;8.32;;;;;;;0.82;100.00;96307.13;5060044;28;20066;-91
2022/11/25 06:00:21;;;;;;;14.82;8.48;;;;;;;0.83;100.00;96311.41;5056742;28;20048;-90
2022/11/25 06:02:49;;;;;;;13.85;8.30;;;;;;;0.82;100.00;96315.16;5050833;28;20045;-89
2022/11/25 06:05:16;;;;;;;13.80;9.02;;;;;;;0.80;100.00;96311.94;5050600;28;20495;-88
2022/11/25 06:07:44;;;;;;;14.70;8.32;;;;;;;0.80;100.00;96307.38;5050629;28;20051;-89
2022/11/25 06:10:11;;;;;;;14.35;8.27;;;;;;;0.79;100.00;96308.44;5050451;28;20049;-91
2022/11/25 06:12:37;;;;;;;13.90;7.80;;;;;;;0.78;100.00;96299.59;5054728;28;20052;-90
2022/11/25 06:15:05;;;;;;;14.65;8.25;;;;;;;0.75;100.00;96294.75;5057966;28;20040;-89
2022/11/25 06:17:32;;;;;;;16.42;8.82;;;;;;;0.75;100.00;96288.56;5069493;28;20053;-90
2022/11/25 06:19:58;;;;;;;15.70;8.98;;;;;;;0.71;100.00;96277.56;5070694;28;20051;-90
2022/11/25 06:22:25;;;;;;;14.70;8.55;;;;;;;0.68;100.00;96288.81;5069661;28;20052;-90
2022/11/25 06:24:53;;;;;;;14.38;8.98;;;;;;;0.67;100.00;96300.56;5069964;28;20044;-91
2022/11/25 06:27:19;;;;;;;16.73;9.55;;;;;;;0.64;100.00;96293.06;5049901;28;20045;-89
2022/11/25 06:29:46;;;;;;;15.23;8.68;;;;;;;0.62;100.00;96295.16;5056765;28;20041;-76
2022/11/25 06:32:13;;;;;;;16.25;9.02;;;;;;;0.61;100.00;96298.91;5055588;28;20045;-78
2022/11/25 06:34:41;;;;;;;15.13;9.18;;;;;;;0.63;100.00;96296.81;5050261;28;20496;-79
2022/11/25 06:37:08;;;;;;;18.35;10.07;;;;;;;0.62;100.00;96295.16;5062477;28;20503;-77
2022/11/25 06:39:34;;;;;;;18.83;11.50;;;;;;;0.62;100.00;96299.72;5069710;28;20044;-79
2022/11/25 06:42:02;;;;;;;19.98;11.40;;;;;;;0.65;100.00;96309.94;5063527;28;20645;-77
2022/11/25 06:44:29;;;;;;;19.40;11.02;;;;;;;0.67;100.00;96319.31;5066121;28;20047;-75
2022/11/25 06:46:55;;;;;;;17.58;10.77;;;;;;;0.67;100.00;96308.59;5069885;28;20046;-75
2022/11/25 06:49:22;;;;;;;17.95;10.68;;;;;;;0.71;100.00;96325.78;5066646;28;20049;-77
2022/11/25 06:51:49;;;;;;;18.38;10.88;;;;;;;0.71;100.00;96317.75;5069862;28;20040;-76
2022/11/25 06:54:16;;;;;;;17.67;10.70;;;;;;;0.75;100.00;96326.91;5068893;28;20052;-75
2022/11/25 06:56:43;;;;;;;18.02;10.70;;;;;;;0.81;100.00;96321.59;5069664;28;20045;-76
2022/11/25 06:59:11;;;;;;;18.23;10.32;;;;;;;0.86;100.00;96305.53;5065642;28;20055;-75
2022/11/25 07:01:38;;;;;;;17.48;10.80;;;;;;;0.93;100.00;96311.47;5064428;28;20045;-75
2022/11/25 07:04:05;;;;;;;17.30;10.77;;;;;;;1.03;100.00;96306.19;5050952;28;20110;-76
2022/11/25 07:06:33;;;;;;;16.48;10.20;;;;;;;1.10;100.00;96312.16;5054890;28;20129;-76
2022/11/25 07:09:00;;;;;;;19.35;10.88;;;;;;;1.20;100.00;96312.22;5066024;28;20037;-76
2022/11/25 07:11:30;;;;;;;18.40;10.73;;;;;;;1.27;100.00;96307.41;5053272;28;20040;-76
2022/11/25 07:13:59;;;;;;;21.85;11.70;;;;;;;1.36;100.00;96299.69;5070310;28;20056;-76
2022/11/25 07:16:27;;;;;;;20.48;10.40;;;;;;;1.40;100.00;96299.97;5073061;28;20570;-75
2022/11/25 07:18:54;;;;;;;15.60;9.57;;;;;;;1.43;100.00;96312.88;5073250;28;20052;-79
2022/11/25 07:21:24;;;;;;;16.67;10.20;;;;;;;1.48;100.00;96310.22;5072839;28;20092;-78
2022/11/25 07:23:51;;;;;;;18.02;10.65;;;;;;;1.51;100.00;96318.56;5067415;28;20055;-80
2022/11/25 07:26:20;;;;;;;15.82;9.85;;;;;;;1.56;100.00;96310.50;5052883;28;20056;-77
2022/11/25 07:28:47;;;;;;;15.10;9.10;;;;;;;1.66;100.00;96308.94;5056307;28;20048;-76
2022/11/25 07:31:16;;;;;;;15.48;8.85;;;;;;;1.71;100.00;96311.66;5072546;28;20045;-77
2022/11/25 07:33:45;;;;;;;13.27;9.10;;;;;;;1.80;100.00;96321.63;5073322;28;20132;-76
2022/11/25 07:36:13;;;;;;;14.32;8.85;;;;;;;1.93;100.00;96335.63;5065567;28;20044;-75
2022/11/25 07:38:41;;;;;;;18.65;10.32;;;;;;;2.00;100.00;96331.63;5053302;28;20064;-77
2022/11/25 07:41:11;;;;;;;14.02;8.73;;;;;;;2.12;100.00;96328.69;5053461;28;20049;-75
2022/11/25 07:43:37;;;;;;;18.67;8.82;;;;;;;2.28;100.00;96338.41;5052981;28;20041;-75
2022/11/25 07:46:13;;;;;;;16.10;8.90;;;;;;;2.49;99.58;96336.56;5063452;28;20517;-77
2022/11/25 07:48:40;;;;;;;13.75;7.72;;;;;;;2.77;99.14;96334.47;5052610;28;20045;-75
2022/11/25 07:51:15;;;;;;;12.32;7.72;;;;;;;2.96;97.21;96337.41;5055934;28;20510;-80
2022/11/25 07:53:42;;;;;;;13.10;8.07;;;;;;;2.91;96.18;96335.50;5052859;28;20061;-76
2022/11/25 07:56:09;;;;;;;11.95;6.82;;;;;;;2.86;96.40;96341.69;5052452;28;20045;-77
2022/11/25 07:58:35;;;;;;;14.57;7.93;;;;;;;2.85;96.91;96337.41;5052513;28;20063;-75
2022/11/25 08:01:02;;;;;;;11.95;6.80;;;;;;;2.87;96.86;96340.66;5053634;28;20051;-78
2022/11/25 08:03:28;;;;;;;10.95;6.95;;;;;;;2.92;96.81;96344.38;5052522;28;20044;-75
2022/11/25 08:06:00;;;;;;;8.65;6.43;;;;;;;2.93;96.67;96340.66;5053723;28;20052;-75
2022/11/25 08:08:28;;;;;;;9.60;6.55;;;;;;;2.94;96.05;96339.56;5051906;28;20060;-76
2022/11/25 08:10:54;;;;;;;12.45;6.90;;;;;;;2.91;96.27;96348.16;5052651;28;20041;-75
2022/11/25 08:13:21;;;;;;;10.00;6.43;;;;;;;2.97;96.45;96344.38;5060922;28;20424;-75
2022/11/25 08:15:48;;;;;;;10.13;6.07;;;;;;;2.96;95.61;96350.84;5069361;28;20047;-75
2022/11/25 08:18:15;;;;;;;12.15;6.63;;;;;;;2.97;95.45;96357.84;5051603;28;20120;-76
2022/11/25 08:20:41;;;;;;;11.48;6.90;;;;;;;2.96;95.35;96364.31;5052444;28;20041;-76
2022/11/25 08:23:08;;;;;;;10.40;6.18;;;;;;;2.96;95.33;96358.91;5052272;28;20495;-76
2022/11/25 08:25:39;;;;;;;10.65;6.68;;;;;;;2.97;94.69;96363.22;5053319;28;20045;-76
2022/11/25 08:28:10;;;;;;;14.00;6.72;;;;;;;3.03;94.52;96362.16;5051446;28;20048;-76
2022/11/25 08:30:36;;;;;;;8.05;5.45;;;;;;;2.98;94.08;96370.25;5052158;28;20094;-77
2022/11/25 08:33:06;;;;;;;8.43;5.32;;;;;;;3.04;93.72;96366.47;5052877;28;20045;-77
2022/11/25 08:35:36;;;;;;;9.63;5.78;;;;;;;3.09;93.72;96363.78;5058180;28;20048;-76
2022/11/25 08:38:03;;;;;;;8.32;5.47;;;;;;;3.05;93.09;96362.69;5071561;28;20399;-76
2022/11/25 08:40:30;;;;;;;8.70;5.70;;;;;;;3.17;93.32;96355.13;5071742;28;20044;-76
2022/11/25 08:42:58;;;;;;;9.02;5.18;;;;;;;3.29;92.93;96361.06;5069150;28;20434;-76
2022/11/25 08:45:24;;;;;;;10.30;6.15;;;;;;;3.49;93.95;96362.91;5065887;28;20048;-76
2022/11/25 08:47:51;;;;;;;11.55;6.13;;;;;;;3.63;93.93;96357.75;5060310;28;20037;-75
2022/11/25 08:50:18;;;;;;;10.30;5.28;;;;;;;3.65;93.10;96351.03;5059183;28;20052;-75
2022/11/25 08:52:44;;;;;;;9.57;5.40;;;;;;;3.70;92.57;96360.97;5051374;28;20041;-80
2022/11/25 08:55:11;;;;;;;8.55;5.32;;;;;;;3.74;91.07;96358.53;5066436;28;20094;-78
2022/11/25 08:57:38;;;;;;;8.73;5.45;;;;;;;3.76;90.90;96357.19;5058239;28;20041;-76
2022/11/25 09:00:07;;;;;;;7.88;4.70;;;;;;;3.79;90.10;96361.22;5055592;28;20487;-76
2022/11/25 09:02:34;;;;;;;9.63;5.38;;;;;;;3.84;90.30;96359.31;5063286;28;20399;-75
2022/11/25 09:05:01;;;;;;;8.73;5.07;;;;;;;3.92;90.19;96371.41;5058520;28;20045;-77
2022/11/25 09:07:27;;;;;;;8.77;5.60;;;;;;;3.94;90.85;96369.25;5070839;28;20505;-76
2022/11/25 09:09:54;;;;;;;11.15;5.80;;;;;;;3.93;89.75;96379.22;5071215;28;20037;-75
2022/11/25 09:12:20;;;;;;;9.13;5.85;;;;;;;3.95;89.37;96381.63;5070796;28;20056;-76
2022/11/25 09:14:47;;;;;;;8.90;5.47;;;;;;;3.97;89.24;96378.66;5071000;28;20048;-76
2022/11/25 09:17:15;;;;;;;8.95;6.57;;;;;;;3.93;88.72;96392.69;5070793;28;20146;-76
2022/11/25 09:19:41;;;;;;;7.20;4.45;;;;;;;3.58;87.99;96401.66;5071095;28;20542;-77
2022/11/25 09:22:08;;;;;;;8.82;5.53;;;;;;;3.63;88.44;96395.47;5070420;28;20041;-76
2022/11/25 09:24:35;;;;;;;11.48;4.70;;;;;;;3.55;88.45;96404.06;5071197;28;20449;-75
2022/11/25 09:27:01;;;;;;;8.30;5.05;;;;;;;3.50;89.78;96410.31;5070418;28;20040;-75
2022/11/25 09:29:29;;;;;;;10.50;5.70;;;;;;;3.71;90.52;96413.78;5070630;28;20037;-76
2022/11/25 09:31:55;;;;;;;9.15;4.93;;;;;;;3.76;90.08;96416.44;5070828;28;20174;-75
2022/11/25 09:34:23;;;;;;;10.13;5.28;;;;;;;3.91;90.01;96419.09;5058669;28;20048;-76
2022/11/25 09:36:50;;;;;;;9.75;6.00;;;;;;;4.06;90.21;96420.13;5070669;28;20047;-75
2022/11/25 09:39:16;;;;;;;6.43;4.13;;;;;;;4.12;89.99;96421.72;5068530;28;20044;-76
2022/11/25 09:47:47;;;;;;;7.18;4.07;;;;;;;4.14;88.50;96423.06;5049902;28;20056;-76
2022/11/25 09:50:22;;;;;;;8.10;4.55;;;;;;;4.13;87.92;96431.44;5052672;28;20392;-77
2022/11/25 09:53:02;;;;;;;5.05;3.70;;;;;;;4.00;87.50;96421.22;5049878;28;20538;-76
2022/11/25 09:55:35;;;;;;;6.70;4.45;;;;;;;4.04;87.65;96416.91;5049814;28;20047;-75
2022/11/25 09:58:16;;;;;;;8.77;4.83;;;;;;;4.29;88.77;96411.44;5060303;28;20045;-78
2022/11/25 10:00:45;;;;;;;7.55;4.95;;;;;;;4.57;89.85;96414.53;5070380;28;20738;-77
2022/11/25 10:03:20;;;;;;;8.00;5.10;;;;;;;5.09;90.25;96415.81;5069638;28;20490;-76
2022/11/25 10:05:59;;;;;;;6.60;3.95;;;;;;;5.47;81.99;96406.84;5050252;28;20123;-76
2022/11/25 10:08:29;;;;;;;8.00;4.35;;;;;;;5.79;80.57;96418.19;5054815;28;20045;-76
2022/11/25 10:11:01;;;;;;;8.13;3.95;;;;;;;5.75;80.36;96418.75;5058566;28;20056;-76
2022/11/25 10:13:37;;;;;;;6.07;3.67;;;;;;;5.80;81.33;96414.41;5068857;28;20040;-76
2022/11/25 10:16:07;;;;;;;6.38;3.85;;;;;;;5.86;81.29;96416.75;5054744;28;20047;-76
2022/11/25 10:18:39;;;;;;;7.03;4.38;;;;;;;5.99;79.65;96412.59;5050212;28;20041;-76
2022/11/25 10:21:10;;;;;;;7.95;3.78;;;;;;;6.15;79.37;96415.94;5049846;28;20041;-75
2022/11/25 10:23:39;;;;;;;10.95;4.82;;;;;;;6.19;78.83;96416.97;5051307;28;20049;-76
2022/11/25 10:26:13;;;;;;;6.57;3.92;;;;;;;6.24;78.49;96416.91;5049761;28;20066;-79
2022/11/25 10:28:46;;;;;;;6.85;4.00;;;;;;;6.22;79.30;96413.72;5050138;28;20045;-79
2022/11/25 10:31:17;;;;;;;5.85;3.67;;;;;;;6.23;79.65;96412.59;5049666;28;20389;-77
2022/11/25 10:33:46;;;;;;;8.20;3.67;;;;;;;6.13;77.35;96407.31;5051130;28;20049;-75
2022/11/25 10:36:18;;;;;;;5.50;3.53;;;;;;;5.94;77.11;96410.75;5049612;28;20041;-75
2022/11/25 10:38:53;;;;;;;7.63;3.30;;;;;;;6.04;77.10;96411.75;5060954;28;20047;-76
2022/11/25 10:41:23;;;;;;;7.38;3.50;;;;;;;6.15;75.63;96415.94;5073598;28;20509;-78
2022/11/25 10:43:50;;;;;;;6.72;3.00;;;;;;;6.28;76.72;96407.13;5058932;28;20041;-75
2022/11/25 10:46:30;;;;;;;4.72;3.10;;;;;;;6.28;74.20;96405.25;5073213;28;20041;-76
2022/11/25 10:49:01;;;;;;;4.45;2.80;;;;;;;6.38;74.63;96398.09;5073773;28;20040;-76
2022/11/25 10:51:37;;;;;;;7.32;3.35;;;;;;;6.49;76.18;96392.25;5073326;28;20450;-76
2022/11/25 10:54:13;;;;;;;5.07;2.80;;;;;;;6.46;74.62;96398.25;5073257;28;20047;-77
2022/11/25 10:56:48;;;;;;;6.32;3.35;;;;;;;6.66;77.96;96393.66;5072906;28;20041;-76
2022/11/25 10:59:25;;;;;;;5.10;3.30;;;;;;;6.76;75.56;96398.94;5073356;28;20515;-77
2022/11/25 11:01:54;;;;;;;6.15;3.30;;;;;;;6.94;76.36;96405.44;5071983;28;20041;-77
2022/11/25 11:04:21;;;;;;;5.35;3.13;;;;;;;7.18;75.12;96405.34;5073094;28;20090;-76
2022/11/25 11:06:50;;;;;;;4.68;2.80;;;;;;;7.32;73.15;96406.22;5054886;28;20060;-76
2022/11/25 11:09:35;;;;;;;4.68;3.20;;;;;;;7.17;72.75;96403.75;5053686;28;20098;-76
2022/11/25 11:12:14;;;;;;;5.03;3.30;;;;;;;6.98;73.42;96401.84;5073267;28;20683;-75
2022/11/25 11:14:40;;;;;;;7.05;3.55;;;;;;;7.23;75.10;96392.53;5071852;28;20398;-76
2022/11/25 11:17:26;;;;;;;6.60;3.63;;;;;;;7.46;73.65;96401.63;5072532;28;20049;-78
2022/11/25 11:20:02;;;;;;;6.15;3.17;;;;;;;7.93;71.68;96399.72;5072750;28;20046;-75
2022/11/25 11:22:31;;;;;;;5.60;3.28;;;;;;;8.04;71.58;96398.44;5073098;28;20663;-77
2022/11/25 11:25:25;;;;;;;5.30;2.85;;;;;;;7.95;71.18;96394.81;5055359;28;20048;-77
2022/11/25 11:27:52;;;;;;;3.83;2.10;;;;;;;7.70;70.24;96398.00;5053061;28;20495;-77
2022/11/25 11:30:22;;;;;;;4.43;2.35;;;;;;;7.58;70.81;96393.84;5065712;28;20056;-75
2022/11/25 11:32:56;;;;;;;4.22;2.20;;;;;;;7.75;71.94;96392.47;5072641;28;20119;-75
2022/11/25 11:35:29;;;;;;;3.78;2.33;;;;;;;7.80;70.52;96389.69;5066888;28;20059;-76
2022/11/25 11:38:01;;;;;;;5.57;2.20;;;;;;;7.80;69.55;96384.25;5053303;28;20048;-75
2022/11/25 11:40:35;;;;;;;4.22;2.20;;;;;;;7.89;69.05;96385.19;5052884;28;20041;-75
2022/11/25 11:43:29;;;;;;;5.82;2.08;;;;;;;7.99;71.28;96376.06;5054363;28;20045;-79
2022/11/25 11:46:12;;;;;;;5.32;2.03;;;;;;;7.90;70.69;96373.22;5072427;28;20055;-76
2022/11/25 11:48:40;;;;;;;4.82;1.83;;;;;;;8.02;70.99;96375.44;5072449;28;20392;-76
2022/11/25 11:51:16;;;;;;;4.90;1.75;;;;;;;7.78;66.88;96378.34;5072194;28;20479;-76
2022/11/25 11:53:58;;;;;;;2.70;1.42;;;;;;;7.82;66.75;96365.78;5069748;28;20055;-77